sensor_id;sensor_type;location;lat;lon;timestamp;pressure;altitude;pressure_sealevel;temperature;humidity
64792;BME280;51226;47.504;19.074;2023-04-04T00:02:38;100513.03;;;4.75;37.94
64792;BME280;51226;47.504;19.074;2023-04-04T00:05:41;100516.41;;;4.74;37.93
64792;BME280;51226;47.504;19.074;2023-04-04T00:08:44;100517.34;;;4.75;38.61
64792;BME280;51226;47.504;19.074;2023-04-04T00:11:47;100515.41;;;4.86;38.23
64792;BME280;51226;47.504;19.074;2023-04-04T00:14:50;100520.38;;;4.82;38.28
64792;BME280;51226;47.504;19.074;2023-04-04T00:17:53;100522.69;;;4.78;38.59
64792;BME280;51226;47.504;19.074;2023-04-04T00:20:56;100522.50;;;4.75;39.34
64792;BME280;51226;47.504;19.074;2023-04-04T00:23:59;100516.31;;;4.86;38.64
64792;BME280;51226;47.504;19.074;2023-04-04T00:27:02;100529.03;;;4.83;38.65
64792;BME280;51226;47.504;19.074;2023-04-04T00:30:06;100532.94;;;4.76;38.75
64792;BME280;51226;47.504;19.074;2023-04-04T00:33:08;100528.44;;;4.74;38.71
64792;BME280;51226;47.504;19.074;2023-04-04T00:36:12;100536.63;;;4.67;39.15
64792;BME280;51226;47.504;19.074;2023-04-04T00:39:14;100534.59;;;4.76;38.60
64792;BME280;51226;47.504;19.074;2023-04-04T00:42:17;100542.56;;;4.66;39.03
64792;BME280;51226;47.504;19.074;2023-04-04T00:45:20;100537.09;;;4.61;38.98
64792;BME280;51226;47.504;19.074;2023-04-04T00:48:23;100535.13;;;4.70;39.05
64792;BME280;51226;47.504;19.074;2023-04-04T00:51:26;100538.59;;;4.71;38.67
64792;BME280;51226;47.504;19.074;2023-04-04T00:54:29;100522.81;;;4.66;38.46
64792;BME280;51226;47.504;19.074;2023-04-04T00:57:33;100530.25;;;4.61;38.50
64792;BME280;51226;47.504;19.074;2023-04-04T01:00:36;100517.66;;;4.66;38.27
64792;BME280;51226;47.504;19.074;2023-04-04T01:03:39;100514.25;;;4.54;39.61
64792;BME280;51226;47.504;19.074;2023-04-04T01:06:44;100514.56;;;4.58;39.04
64792;BME280;51226;47.504;19.074;2023-04-04T01:09:47;100492.62;;;4.52;39.95
64792;BME280;51226;47.504;19.074;2023-04-04T01:12:50;100493.91;;;4.58;38.88
64792;BME280;51226;47.504;19.074;2023-04-04T01:15:53;100490.03;;;4.52;40.02
64792;BME280;51226;47.504;19.074;2023-04-04T01:18:57;100482.97;;;4.49;40.53
64792;BME280;51226;47.504;19.074;2023-04-04T01:22:01;100481.97;;;4.60;38.86
64792;BME280;51226;47.504;19.074;2023-04-04T01:25:06;100473.03;;;4.55;39.59
64792;BME280;51226;47.504;19.074;2023-04-04T01:28:09;100471.25;;;4.54;39.12
64792;BME280;51226;47.504;19.074;2023-04-04T01:31:13;100466.06;;;4.54;39.23
64792;BME280;51226;47.504;19.074;2023-04-04T01:34:29;100457.97;;;4.48;40.11
64792;BME280;51226;47.504;19.074;2023-04-04T01:37:35;100454.47;;;4.48;39.60
64792;BME280;51226;47.504;19.074;2023-04-04T01:40:40;100454.00;;;4.40;39.74
64792;BME280;51226;47.504;19.074;2023-04-04T01:43:48;100438.50;;;4.40;40.21
64792;BME280;51226;47.504;19.074;2023-04-04T01:46:52;100443.87;;;4.43;39.70
64792;BME280;51226;47.504;19.074;2023-04-04T01:49:57;100437.09;;;4.45;39.53
64792;BME280;51226;47.504;19.074;2023-04-04T01:52:59;100429.16;;;4.42;39.41
64792;BME280;51226;47.504;19.074;2023-04-04T01:56:03;100433.34;;;4.40;39.79
64792;BME280;51226;47.504;19.074;2023-04-04T01:59:06;100418.94;;;4.30;40.03
64792;BME280;51226;47.504;19.074;2023-04-04T02:02:09;100421.72;;;4.33;39.55
64792;BME280;51226;47.504;19.074;2023-04-04T02:05:13;100416.47;;;4.32;39.74
64792;BME280;51226;47.504;19.074;2023-04-04T02:08:16;100415.69;;;4.33;39.98
64792;BME280;51226;47.504;19.074;2023-04-04T02:11:19;100406.94;;;4.31;39.77
64792;BME280;51226;47.504;19.074;2023-04-04T02:14:25;100400.59;;;4.25;39.70
64792;BME280;51226;47.504;19.074;2023-04-04T02:17:28;100393.78;;;4.13;40.42
64792;BME280;51226;47.504;19.074;2023-04-04T02:20:31;100389.50;;;4.13;40.53
64792;BME280;51226;47.504;19.074;2023-04-04T02:23:34;100392.28;;;4.03;41.00
64792;BME280;51226;47.504;19.074;2023-04-04T02:26:37;100391.97;;;3.98;41.12
64792;BME280;51226;47.504;19.074;2023-04-04T02:29:40;100384.81;;;3.94;41.42
64792;BME280;51226;47.504;19.074;2023-04-04T02:32:43;100378.78;;;3.94;41.51
64792;BME280;51226;47.504;19.074;2023-04-04T02:35:47;100378.31;;;3.86;41.78
64792;BME280;51226;47.504;19.074;2023-04-04T02:38:49;100377.91;;;3.80;42.29
64792;BME280;51226;47.504;19.074;2023-04-04T02:41:54;100375.41;;;3.81;42.43
64792;BME280;51226;47.504;19.074;2023-04-04T02:44:57;100378.00;;;3.81;42.86
64792;BME280;51226;47.504;19.074;2023-04-04T02:48:00;100376.41;;;3.97;42.51
64792;BME280;51226;47.504;19.074;2023-04-04T02:51:08;100371.22;;;4.10;41.80
64792;BME280;51226;47.504;19.074;2023-04-04T02:54:11;100380.38;;;4.05;41.52
64792;BME280;51226;47.504;19.074;2023-04-04T02:57:14;100378.69;;;3.92;41.96
64792;BME280;51226;47.504;19.074;2023-04-04T03:00:17;100384.56;;;3.89;42.00
64792;BME280;51226;47.504;19.074;2023-04-04T03:03:21;100386.22;;;3.89;42.20
64792;BME280;51226;47.504;19.074;2023-04-04T03:06:25;100390.69;;;3.78;42.41
64792;BME280;51226;47.504;19.074;2023-04-04T03:09:29;100402.31;;;3.85;42.19
64792;BME280;51226;47.504;19.074;2023-04-04T03:12:32;100394.47;;;3.70;42.63
64792;BME280;51226;47.504;19.074;2023-04-04T03:15:35;100403.78;;;3.68;42.20
64792;BME280;51226;47.504;19.074;2023-04-04T03:18:38;100404.00;;;3.71;42.67
64792;BME280;51226;47.504;19.074;2023-04-04T03:21:41;100397.13;;;3.71;42.73
64792;BME280;51226;47.504;19.074;2023-04-04T03:24:44;100409.75;;;3.80;42.23
64792;BME280;51226;47.504;19.074;2023-04-04T03:27:47;100399.72;;;3.71;42.67
64792;BME280;51226;47.504;19.074;2023-04-04T03:30:52;100398.00;;;3.59;43.28
64792;BME280;51226;47.504;19.074;2023-04-04T03:33:55;100402.97;;;3.69;43.11
64792;BME280;51226;47.504;19.074;2023-04-04T03:36:58;100409.16;;;3.71;44.02
64792;BME280;51226;47.504;19.074;2023-04-04T03:40:01;100410.91;;;3.72;43.93
64792;BME280;51226;47.504;19.074;2023-04-04T03:43:07;100412.91;;;3.76;43.70
64792;BME280;51226;47.504;19.074;2023-04-04T03:46:10;100416.69;;;3.81;42.96
64792;BME280;51226;47.504;19.074;2023-04-04T03:49:14;100419.28;;;3.81;43.11
64792;BME280;51226;47.504;19.074;2023-04-04T03:52:17;100420.88;;;3.93;42.85
64792;BME280;51226;47.504;19.074;2023-04-04T03:55:20;100423.34;;;3.91;43.36
64792;BME280;51226;47.504;19.074;2023-04-04T03:58:23;100418.09;;;3.89;43.13
64792;BME280;51226;47.504;19.074;2023-04-04T04:01:26;100422.44;;;3.90;42.36
64792;BME280;51226;47.504;19.074;2023-04-04T04:04:29;100410.03;;;3.98;42.35
64792;BME280;51226;47.504;19.074;2023-04-04T04:07:32;100406.37;;;3.81;43.05
64792;BME280;51226;47.504;19.074;2023-04-04T04:10:35;100410.63;;;3.81;42.78
64792;BME280;51226;47.504;19.074;2023-04-04T04:13:38;100411.84;;;3.73;43.98
64792;BME280;51226;47.504;19.074;2023-04-04T04:16:42;100402.41;;;3.73;44.11
64792;BME280;51226;47.504;19.074;2023-04-04T04:19:46;100400.13;;;3.78;43.67
64792;BME280;51226;47.504;19.074;2023-04-04T04:22:49;100396.63;;;3.77;43.85
64792;BME280;51226;47.504;19.074;2023-04-04T04:25:55;100399.22;;;3.77;43.85
64792;BME280;51226;47.504;19.074;2023-04-04T04:28:59;100409.75;;;3.80;43.27
64792;BME280;51226;47.504;19.074;2023-04-04T04:32:02;100401.91;;;3.79;43.78
64792;BME280;51226;47.504;19.074;2023-04-04T04:35:07;100402.59;;;3.76;43.78
64792;BME280;51226;47.504;19.074;2023-04-04T04:38:11;100399.13;;;3.89;42.80
64792;BME280;51226;47.504;19.074;2023-04-04T04:41:15;100406.97;;;3.90;42.83
64792;BME280;51226;47.504;19.074;2023-04-04T04:44:18;100386.81;;;3.85;43.70
64792;BME280;51226;47.504;19.074;2023-04-04T04:47:22;100400.03;;;3.89;43.47
64792;BME280;51226;47.504;19.074;2023-04-04T04:50:25;100398.34;;;3.90;43.35
64792;BME280;51226;47.504;19.074;2023-04-04T04:53:29;100397.81;;;3.96;42.88
64792;BME280;51226;47.504;19.074;2023-04-04T04:56:33;100399.41;;;3.94;42.98
64792;BME280;51226;47.504;19.074;2023-04-04T04:59:38;100399.41;;;4.07;42.29
64792;BME280;51226;47.504;19.074;2023-04-04T05:02:43;100392.50;;;4.06;42.83
64792;BME280;51226;47.504;19.074;2023-04-04T05:05:48;100396.06;;;4.08;42.92
64792;BME280;51226;47.504;19.074;2023-04-04T05:08:51;100401.78;;;4.17;42.11
64792;BME280;51226;47.504;19.074;2023-04-04T05:11:55;100391.19;;;4.13;42.55
64792;BME280;51226;47.504;19.074;2023-04-04T05:14:59;100388.00;;;4.17;41.95
64792;BME280;51226;47.504;19.074;2023-04-04T05:18:03;100384.53;;;4.16;41.67
64792;BME280;51226;47.504;19.074;2023-04-04T05:21:06;100388.78;;;4.16;42.21
64792;BME280;51226;47.504;19.074;2023-04-04T05:24:09;100387.22;;;4.18;41.97
64792;BME280;51226;47.504;19.074;2023-04-04T05:27:12;100392.63;;;4.22;41.79
64792;BME280;51226;47.504;19.074;2023-04-04T05:30:16;100393.03;;;4.29;41.68
64792;BME280;51226;47.504;19.074;2023-04-04T05:33:20;100395.72;;;4.30;42.62
64792;BME280;51226;47.504;19.074;2023-04-04T05:36:26;100401.97;;;4.34;41.69
64792;BME280;51226;47.504;19.074;2023-04-04T05:39:29;100402.16;;;4.37;41.27
64792;BME280;51226;47.504;19.074;2023-04-04T05:42:33;100415.06;;;4.37;41.34
64792;BME280;51226;47.504;19.074;2023-04-04T05:45:36;100400.53;;;4.52;40.00
64792;BME280;51226;47.504;19.074;2023-04-04T05:48:43;100407.63;;;4.41;40.71
64792;BME280;51226;47.504;19.074;2023-04-04T05:51:47;100408.19;;;4.51;40.93
64792;BME280;51226;47.504;19.074;2023-04-04T05:54:50;100407.00;;;4.45;42.08
64792;BME280;51226;47.504;19.074;2023-04-04T05:57:55;100404.03;;;4.53;40.73
64792;BME280;51226;47.504;19.074;2023-04-04T06:01:05;100423.09;;;4.55;42.20
64792;BME280;51226;47.504;19.074;2023-04-04T06:04:08;100410.91;;;4.67;41.59
64792;BME280;51226;47.504;19.074;2023-04-04T06:07:12;100421.59;;;4.87;41.18
64792;BME280;51226;47.504;19.074;2023-04-04T06:10:16;100418.72;;;5.10;39.50
64792;BME280;51226;47.504;19.074;2023-04-04T06:13:20;100417.16;;;4.99;39.70
64792;BME280;51226;47.504;19.074;2023-04-04T06:16:23;100421.94;;;5.21;39.23
64792;BME280;51226;47.504;19.074;2023-04-04T06:19:28;100416.56;;;5.03;39.74
64792;BME280;51226;47.504;19.074;2023-04-04T06:22:32;100418.97;;;5.00;40.59
64792;BME280;51226;47.504;19.074;2023-04-04T06:25:37;100421.59;;;5.15;39.96
64792;BME280;51226;47.504;19.074;2023-04-04T06:28:49;100423.37;;;5.31;39.32
64792;BME280;51226;47.504;19.074;2023-04-04T06:31:53;100419.03;;;5.30;39.77
64792;BME280;51226;47.504;19.074;2023-04-04T06:34:56;100408.41;;;5.40;38.88
64792;BME280;51226;47.504;19.074;2023-04-04T06:38:01;100383.16;;;5.51;38.06
64792;BME280;51226;47.504;19.074;2023-04-04T06:41:06;100372.91;;;5.67;37.53
64792;BME280;51226;47.504;19.074;2023-04-04T06:44:09;100379.03;;;5.84;36.77
64792;BME280;51226;47.504;19.074;2023-04-04T06:47:12;100376.72;;;6.04;37.30
64792;BME280;51226;47.504;19.074;2023-04-04T06:50:16;100369.66;;;6.01;36.48
64792;BME280;51226;47.504;19.074;2023-04-04T06:53:21;100366.84;;;6.13;35.76
64792;BME280;51226;47.504;19.074;2023-04-04T06:56:25;100362.91;;;6.20;35.49
64792;BME280;51226;47.504;19.074;2023-04-04T06:59:29;100367.94;;;6.17;35.46
64792;BME280;51226;47.504;19.074;2023-04-04T07:02:32;100367.25;;;6.36;35.47
64792;BME280;51226;47.504;19.074;2023-04-04T07:05:37;100373.00;;;6.46;35.39
64792;BME280;51226;47.504;19.074;2023-04-04T07:08:43;100380.22;;;6.52;35.47
64792;BME280;51226;47.504;19.074;2023-04-04T07:11:46;100378.28;;;6.64;35.29
64792;BME280;51226;47.504;19.074;2023-04-04T07:14:49;100382.25;;;6.74;34.90
64792;BME280;51226;47.504;19.074;2023-04-04T07:17:52;100387.94;;;6.83;34.87
64792;BME280;51226;47.504;19.074;2023-04-04T07:20:55;100394.66;;;6.80;35.07
64792;BME280;51226;47.504;19.074;2023-04-04T07:23:59;100392.22;;;6.83;35.00
64792;BME280;51226;47.504;19.074;2023-04-04T07:27:03;100401.53;;;6.79;35.05
64792;BME280;51226;47.504;19.074;2023-04-04T07:30:07;100397.72;;;6.89;34.97
64792;BME280;51226;47.504;19.074;2023-04-04T07:33:10;100401.03;;;7.03;34.41
64792;BME280;51226;47.504;19.074;2023-04-04T07:36:13;100398.12;;;7.13;34.25
64792;BME280;51226;47.504;19.074;2023-04-04T07:39:16;100394.13;;;7.20;34.02
64792;BME280;51226;47.504;19.074;2023-04-04T07:42:19;100403.59;;;7.36;33.75
64792;BME280;51226;47.504;19.074;2023-04-04T07:45:24;100408.81;;;7.70;33.37
64792;BME280;51226;47.504;19.074;2023-04-04T07:48:27;100402.87;;;8.09;33.01
64792;BME280;51226;47.504;19.074;2023-04-04T07:51:31;100395.72;;;8.59;31.91
64792;BME280;51226;47.504;19.074;2023-04-04T07:54:34;100397.41;;;8.96;31.42
64792;BME280;51226;47.504;19.074;2023-04-04T07:57:37;100395.97;;;9.43;30.63
64792;BME280;51226;47.504;19.074;2023-04-04T08:00:41;100385.13;;;9.74;29.90
64792;BME280;51226;47.504;19.074;2023-04-04T08:03:44;100396.16;;;9.90;29.27
64792;BME280;51226;47.504;19.074;2023-04-04T08:06:47;100389.87;;;9.85;29.55
64792;BME280;51226;47.504;19.074;2023-04-04T08:09:50;100395.28;;;9.68;29.79
64792;BME280;51226;47.504;19.074;2023-04-04T08:12:53;100385.94;;;9.73;29.57
64792;BME280;51226;47.504;19.074;2023-04-04T08:15:56;100374.19;;;9.62;30.01
64792;BME280;51226;47.504;19.074;2023-04-04T08:18:59;100374.94;;;9.80;29.65
64792;BME280;51226;47.504;19.074;2023-04-04T08:22:02;100388.56;;;9.73;29.24
64792;BME280;51226;47.504;19.074;2023-04-04T08:25:07;100400.03;;;9.99;28.53
64792;BME280;51226;47.504;19.074;2023-04-04T08:28:11;100394.34;;;10.31;28.29
64792;BME280;51226;47.504;19.074;2023-04-04T08:31:15;100393.44;;;10.30;28.50
64792;BME280;51226;47.504;19.074;2023-04-04T08:34:19;100385.00;;;10.36;28.33
64792;BME280;51226;47.504;19.074;2023-04-04T08:37:22;100391.91;;;10.13;28.33
64792;BME280;51226;47.504;19.074;2023-04-04T08:40:25;100396.69;;;10.25;28.54
64792;BME280;51226;47.504;19.074;2023-04-04T08:43:32;100397.72;;;10.73;27.91
64792;BME280;51226;47.504;19.074;2023-04-04T08:46:37;100398.50;;;10.71;27.20
64792;BME280;51226;47.504;19.074;2023-04-04T08:49:42;100374.19;;;10.72;27.76
64792;BME280;51226;47.504;19.074;2023-04-04T08:52:46;100376.37;;;11.34;27.28
64792;BME280;51226;47.504;19.074;2023-04-04T08:55:50;100370.53;;;11.66;26.50
64792;BME280;51226;47.504;19.074;2023-04-04T08:58:53;100361.28;;;11.76;26.12
64792;BME280;51226;47.504;19.074;2023-04-04T09:02:03;100355.97;;;11.47;26.75
64792;BME280;51226;47.504;19.074;2023-04-04T09:05:07;100366.94;;;11.63;26.80
64792;BME280;51226;47.504;19.074;2023-04-04T09:08:12;100360.38;;;11.76;26.41
64792;BME280;51226;47.504;19.074;2023-04-04T09:11:15;100353.69;;;11.84;26.24
64792;BME280;51226;47.504;19.074;2023-04-04T09:14:19;100352.03;;;11.60;26.53
64792;BME280;51226;47.504;19.074;2023-04-04T09:17:24;100362.19;;;11.51;26.52
64792;BME280;51226;47.504;19.074;2023-04-04T09:20:40;100355.50;;;11.34;26.94
64792;BME280;51226;47.504;19.074;2023-04-04T09:23:44;100356.91;;;11.49;26.75
64792;BME280;51226;47.504;19.074;2023-04-04T09:26:52;100352.75;;;11.82;26.36
64792;BME280;51226;47.504;19.074;2023-04-04T09:30:00;100361.09;;;12.25;25.75
64792;BME280;51226;47.504;19.074;2023-04-04T09:33:08;100360.09;;;12.21;25.92
64792;BME280;51226;47.504;19.074;2023-04-04T09:36:12;100358.34;;;12.20;26.20
64792;BME280;51226;47.504;19.074;2023-04-04T09:39:15;100348.25;;;12.32;25.79
64792;BME280;51226;47.504;19.074;2023-04-04T09:42:19;100343.56;;;12.22;25.95
64792;BME280;51226;47.504;19.074;2023-04-04T09:45:23;100346.75;;;12.12;25.79
64792;BME280;51226;47.504;19.074;2023-04-04T09:48:34;100351.56;;;11.99;25.79
64792;BME280;51226;47.504;19.074;2023-04-04T09:51:38;100345.81;;;12.10;25.76
64792;BME280;51226;47.504;19.074;2023-04-04T09:54:43;100339.81;;;12.42;25.38
64792;BME280;51226;47.504;19.074;2023-04-04T09:57:49;100323.69;;;12.57;26.13
64792;BME280;51226;47.504;19.074;2023-04-04T10:00:54;100331.22;;;13.09;24.95
64792;BME280;51226;47.504;19.074;2023-04-04T10:03:58;100337.91;;;13.31;24.11
64792;BME280;51226;47.504;19.074;2023-04-04T10:07:01;100346.59;;;13.62;24.11
64792;BME280;51226;47.504;19.074;2023-04-04T10:10:05;100340.66;;;13.69;23.67
64792;BME280;51226;47.504;19.074;2023-04-04T10:13:10;100340.47;;;13.61;24.07
64792;BME280;51226;47.504;19.074;2023-04-04T10:16:13;100347.47;;;13.62;23.87
64792;BME280;51226;47.504;19.074;2023-04-04T10:19:17;100349.81;;;13.86;23.86
64792;BME280;51226;47.504;19.074;2023-04-04T10:22:21;100328.19;;;13.95;23.56
64792;BME280;51226;47.504;19.074;2023-04-04T10:25:25;100321.13;;;13.93;26.59
64792;BME280;51226;47.504;19.074;2023-04-04T10:28:28;100326.16;;;13.47;25.17
64792;BME280;51226;47.504;19.074;2023-04-04T10:31:32;100316.44;;;13.11;25.62
64792;BME280;51226;47.504;19.074;2023-04-04T10:34:42;100310.88;;;12.67;26.28
64792;BME280;51226;47.504;19.074;2023-04-04T10:37:56;100310.75;;;12.62;26.49
64792;BME280;51226;47.504;19.074;2023-04-04T10:40:59;100305.22;;;12.51;26.79
64792;BME280;51226;47.504;19.074;2023-04-04T10:44:22;100313.50;;;12.67;25.50
64792;BME280;51226;47.504;19.074;2023-04-04T10:47:26;100303.69;;;12.59;24.85
64792;BME280;51226;47.504;19.074;2023-04-04T10:50:31;100310.94;;;12.38;30.98
64792;BME280;51226;47.504;19.074;2023-04-04T10:53:37;100302.22;;;12.69;25.96
64792;BME280;51226;47.504;19.074;2023-04-04T10:56:42;100308.91;;;12.90;25.52
64792;BME280;51226;47.504;19.074;2023-04-04T10:59:55;100306.59;;;13.34;24.50
64792;BME280;51226;47.504;19.074;2023-04-04T11:03:01;100313.47;;;14.02;24.26
64792;BME280;51226;47.504;19.074;2023-04-04T11:06:12;100313.81;;;14.58;24.03
64792;BME280;51226;47.504;19.074;2023-04-04T11:09:51;100306.75;;;15.00;23.92
64792;BME280;51226;47.504;19.074;2023-04-04T11:12:56;100297.25;;;15.57;22.48
64792;BME280;51226;47.504;19.074;2023-04-04T11:16:16;100291.44;;;15.77;22.11
64792;BME280;51226;47.504;19.074;2023-04-04T11:19:23;100289.50;;;15.66;22.07
64792;BME280;51226;47.504;19.074;2023-04-04T11:22:26;100282.75;;;15.81;21.81
64792;BME280;51226;47.504;19.074;2023-04-04T11:25:33;100287.53;;;16.08;22.52
64792;BME280;51226;47.504;19.074;2023-04-04T11:31:43;100269.62;;;16.48;21.04
64792;BME280;51226;47.504;19.074;2023-04-04T11:34:48;100279.53;;;16.69;20.93
64792;BME280;51226;47.504;19.074;2023-04-04T11:40:55;100268.59;;;16.37;20.99
64792;BME280;51226;47.504;19.074;2023-04-04T11:44:07;100269.62;;;16.49;21.53
64792;BME280;51226;47.504;19.074;2023-04-04T11:47:11;100262.00;;;16.71;20.50
64792;BME280;51226;47.504;19.074;2023-04-04T11:50:15;100267.00;;;16.49;22.25
64792;BME280;51226;47.504;19.074;2023-04-04T11:53:18;100247.88;;;16.64;20.77
64792;BME280;51226;47.504;19.074;2023-04-04T11:56:24;100246.25;;;16.77;20.66
64792;BME280;51226;47.504;19.074;2023-04-04T11:59:28;100250.75;;;16.84;20.57
64792;BME280;51226;47.504;19.074;2023-04-04T12:02:32;100257.97;;;17.06;20.10
64792;BME280;51226;47.504;19.074;2023-04-04T12:05:41;100251.19;;;17.35;20.19
64792;BME280;51226;47.504;19.074;2023-04-04T12:08:45;100243.44;;;17.57;23.05
64792;BME280;51226;47.504;19.074;2023-04-04T12:11:50;100239.16;;;17.70;19.68
64792;BME280;51226;47.504;19.074;2023-04-04T12:14:53;100244.37;;;17.64;19.57
64792;BME280;51226;47.504;19.074;2023-04-04T12:18:20;100244.13;;;17.30;19.97
64792;BME280;51226;47.504;19.074;2023-04-04T12:21:23;100223.78;;;17.12;19.39
64792;BME280;51226;47.504;19.074;2023-04-04T12:24:27;100222.53;;;16.74;20.31
64792;BME280;51226;47.504;19.074;2023-04-04T12:27:31;100221.53;;;16.63;20.54
64792;BME280;51226;47.504;19.074;2023-04-04T12:30:36;100204.78;;;16.56;20.98
64792;BME280;51226;47.504;19.074;2023-04-04T12:33:40;100209.78;;;16.35;20.79
64792;BME280;51226;47.504;19.074;2023-04-04T12:36:47;100215.09;;;16.36;20.96
64792;BME280;51226;47.504;19.074;2023-04-04T12:39:50;100208.72;;;16.19;20.40
64792;BME280;51226;47.504;19.074;2023-04-04T12:42:54;100209.50;;;16.11;20.88
64792;BME280;51226;47.504;19.074;2023-04-04T12:45:57;100205.06;;;16.06;20.60
64792;BME280;51226;47.504;19.074;2023-04-04T12:49:00;100201.91;;;15.67;21.08
64792;BME280;51226;47.504;19.074;2023-04-04T12:52:03;100203.63;;;15.65;21.48
64792;BME280;51226;47.504;19.074;2023-04-04T12:55:08;100207.00;;;15.58;21.31
64792;BME280;51226;47.504;19.074;2023-04-04T12:58:11;100196.84;;;15.25;21.78
64792;BME280;51226;47.504;19.074;2023-04-04T13:01:15;100200.00;;;15.02;21.86
64792;BME280;51226;47.504;19.074;2023-04-04T13:04:21;100209.28;;;14.83;21.72
64792;BME280;51226;47.504;19.074;2023-04-04T13:07:29;100190.44;;;14.57;24.30
64792;BME280;51226;47.504;19.074;2023-04-04T13:10:59;100188.41;;;14.42;22.76
64792;BME280;51226;47.504;19.074;2023-04-04T13:14:05;100196.84;;;14.27;24.70
64792;BME280;51226;47.504;19.074;2023-04-04T13:17:08;100189.69;;;14.20;22.99
64792;BME280;51226;47.504;19.074;2023-04-04T13:20:13;100179.34;;;14.26;22.86
64792;BME280;51226;47.504;19.074;2023-04-04T13:23:16;100188.81;;;14.19;26.83
64792;BME280;51226;47.504;19.074;2023-04-04T13:26:19;100185.72;;;14.39;23.00
64792;BME280;51226;47.504;19.074;2023-04-04T13:29:23;100184.75;;;14.34;23.00
64792;BME280;51226;47.504;19.074;2023-04-04T13:32:27;100190.50;;;14.16;23.04
64792;BME280;51226;47.504;19.074;2023-04-04T13:35:31;100188.69;;;14.12;23.13
64792;BME280;51226;47.504;19.074;2023-04-04T13:38:34;100176.69;;;13.82;23.12
64792;BME280;51226;47.504;19.074;2023-04-04T13:41:37;100180.78;;;13.69;25.70
64792;BME280;51226;47.504;19.074;2023-04-04T13:44:40;100181.62;;;13.68;23.84
64792;BME280;51226;47.504;19.074;2023-04-04T13:47:46;100180.78;;;13.69;24.64
64792;BME280;51226;47.504;19.074;2023-04-04T13:50:50;100176.53;;;13.74;23.53
64792;BME280;51226;47.504;19.074;2023-04-04T13:53:55;100185.66;;;13.92;23.12
64792;BME280;51226;47.504;19.074;2023-04-04T13:57:02;100182.25;;;13.97;22.98
64792;BME280;51226;47.504;19.074;2023-04-04T14:00:25;100179.53;;;13.93;23.26
64792;BME280;51226;47.504;19.074;2023-04-04T14:03:29;100173.00;;;13.72;24.70
64792;BME280;51226;47.504;19.074;2023-04-04T14:06:32;100172.84;;;13.66;23.75
64792;BME280;51226;47.504;19.074;2023-04-04T14:09:35;100178.75;;;13.56;24.14
64792;BME280;51226;47.504;19.074;2023-04-04T14:12:38;100171.53;;;13.45;25.06
64792;BME280;51226;47.504;19.074;2023-04-04T14:15:42;100173.44;;;13.52;24.25
64792;BME280;51226;47.504;19.074;2023-04-04T14:18:46;100173.66;;;13.62;23.62
64792;BME280;51226;47.504;19.074;2023-04-04T14:21:51;100175.28;;;13.57;24.08
64792;BME280;51226;47.504;19.074;2023-04-04T14:24:54;100182.78;;;13.41;24.15
64792;BME280;51226;47.504;19.074;2023-04-04T14:27:57;100185.06;;;13.29;25.49
64792;BME280;51226;47.504;19.074;2023-04-04T14:31:00;100182.63;;;13.33;24.44
64792;BME280;51226;47.504;19.074;2023-04-04T14:34:03;100182.50;;;13.30;24.82
64792;BME280;51226;47.504;19.074;2023-04-04T14:37:07;100182.13;;;13.15;25.63
64792;BME280;51226;47.504;19.074;2023-04-04T14:40:10;100181.91;;;13.06;24.63
64792;BME280;51226;47.504;19.074;2023-04-04T14:43:13;100170.97;;;12.87;24.85
64792;BME280;51226;47.504;19.074;2023-04-04T14:46:17;100177.75;;;12.79;25.43
64792;BME280;51226;47.504;19.074;2023-04-04T14:49:23;100189.09;;;12.79;26.29
64792;BME280;51226;47.504;19.074;2023-04-04T14:52:30;100182.81;;;12.71;24.61
64792;BME280;51226;47.504;19.074;2023-04-04T14:55:38;100179.00;;;12.60;24.97
64792;BME280;51226;47.504;19.074;2023-04-04T14:58:42;100187.25;;;12.42;25.48
64792;BME280;51226;47.504;19.074;2023-04-04T15:01:44;100184.41;;;12.34;25.19
64792;BME280;51226;47.504;19.074;2023-04-04T15:04:48;100188.47;;;12.23;25.70
64792;BME280;51226;47.504;19.074;2023-04-04T15:07:51;100189.75;;;12.07;25.66
64792;BME280;51226;47.504;19.074;2023-04-04T15:10:54;100188.56;;;11.96;26.31
64792;BME280;51226;47.504;19.074;2023-04-04T15:13:57;100184.28;;;11.99;26.08
64792;BME280;51226;47.504;19.074;2023-04-04T15:17:00;100189.81;;;11.80;26.89
64792;BME280;51226;47.504;19.074;2023-04-04T15:20:03;100190.38;;;11.70;26.70
64792;BME280;51226;47.504;19.074;2023-04-04T15:23:06;100194.94;;;11.77;26.42
64792;BME280;51226;47.504;19.074;2023-04-04T15:26:09;100196.19;;;11.61;26.40
64792;BME280;51226;47.504;19.074;2023-04-04T15:29:12;100200.78;;;11.41;27.84
64792;BME280;51226;47.504;19.074;2023-04-04T15:32:16;100200.09;;;11.19;28.89
64792;BME280;51226;47.504;19.074;2023-04-04T15:35:20;100204.16;;;11.09;28.69
64792;BME280;51226;47.504;19.074;2023-04-04T15:38:22;100204.59;;;10.96;29.38
64792;BME280;51226;47.504;19.074;2023-04-04T15:41:25;100210.22;;;11.08;27.71
64792;BME280;51226;47.504;19.074;2023-04-04T15:44:28;100214.44;;;11.05;28.15
64792;BME280;51226;47.504;19.074;2023-04-04T15:47:32;100210.59;;;10.93;27.44
64792;BME280;51226;47.504;19.074;2023-04-04T15:50:34;100220.69;;;10.83;27.43
64792;BME280;51226;47.504;19.074;2023-04-04T15:53:37;100217.25;;;10.60;27.80
64792;BME280;51226;47.504;19.074;2023-04-04T15:56:40;100225.09;;;10.35;28.02
64792;BME280;51226;47.504;19.074;2023-04-04T15:59:44;100223.44;;;10.37;28.35
64792;BME280;51226;47.504;19.074;2023-04-04T16:02:48;100233.44;;;10.27;28.38
64792;BME280;51226;47.504;19.074;2023-04-04T16:05:51;100224.38;;;10.17;29.21